Jefferson, Louisiana
Current Conditions -  °F | °C
As of 4:53 PM on Friday 19 Dec 2014 (Local Time) from KMSY Reporting Station
Light Rain Light Rain  
Wind Chill: 11°   Ceiling: 500
Heat Index: 11°   Visibility: 9mi
Dew Point:   Wind: 15mph
Humidity: 89%   Direction: 40°NE
Pressure: 30.06"   Gusts: NA
Location:  29.96°N, 90.17°W
Report Text: KMSY 192253Z 04013KT 9SM -RA OVC005 11/09 A3006 RMK AO2 RAE09B43 SLP181 P0001 T01110094
Loading
Personal Weather Stations






























Interactive Weather Map New forecast layout! Learn more

10-Day Weather Forecast

Advertisements
Track Severe Weather on mobile